• Join FlightAware (Why Join?)
  • Login
  • US Flag 
04:23AM EDT


 

Airport Tracker/Info


-or-


 

Live Flight TrackerFlight Track Log ✈ UAL4770 ✈ 21-Feb-2014 ✈ KROC - KEWR

Flight Track Log - Related Links

Times and Time Zones

All times are in EST time to prevent confusion due to time zone crossing. See the UAL4770 flight status page for this flight to view local times or setup timezone preferences in your user account.

Time Position Orientation Groundspeed Altitude Reporting Facility
EST Latitude Longitude Course Direction KTS MPH feet Rate Location/Type
07:22PM 43.1092 -77.6853 214° Southwest 116 133 1,300  Level Cleveland Center
07:22PM 43.0994 -77.6942 220° Southwest 117 135 1,900 1,680 Climbing Cleveland Center
07:23PM 43.0819 -77.7075 209° Southwest 119 137 3,200 1,800 Climbing Cleveland Center
07:24PM 43.0531 -77.6625 131° Southeast 168 193 5,300 1,560 Climbing Cleveland Center
07:25PM 43.0361 -77.6000 110° East 187 215 6,500 1,200 Climbing Cleveland Center
07:26PM 43.0028 -77.5058 116° Southeast 221 254 7,800 1,500 Climbing Cleveland Center
07:27PM 42.9728 -77.4197 115° Southeast 244 281 9,600 1,920 Climbing Cleveland Center
07:28PM 42.9467 -77.3408 114° Southeast 221 254 11,800 1,620 Climbing Cleveland Center
07:29PM 42.9217 -77.2725 117° Southeast 217 250 13,000 540 Climbing Cleveland Center
07:30PM 42.8900 -77.1825 116° Southeast 255 293 13,000  Level Cleveland Center
07:31PM 42.8547 -77.0806 115° Southeast 292 336 13,000  Level Cleveland Center
07:32PM 42.8189 -76.9781 115° Southeast 295 339 13,000  Level Cleveland Center
07:33PM 42.7767 -76.8819 121° Southeast 295 339 13,000  Level Boston Center
07:34PM 42.7322 -76.7861 122° Southeast 299 344 13,000  Level Boston Center
07:35PM 42.6914 -76.6903 120° Southeast 295 339 13,000  Level Boston Center
07:37PM 42.6483 -76.5947 121° Southeast 295 339 13,000  Level Boston Center
07:38PM 42.5964 -76.4794 121° Southeast 299 344 13,000  Level Boston Center
07:39PM 42.5536 -76.3853 122° Southeast 296 341 13,000  Level Boston Center
07:40PM 42.5125 -76.2908 121° Southeast 292 336 13,000  Level Boston Center
07:41PM 42.4689 -76.1964 122° Southeast 294 338 13,000  Level Boston Center
07:42PM 42.4267 -76.1036 122° Southeast 293 337 13,000  Level Boston Center
07:43PM 42.3842 -76.0081 121° Southeast 295 339 13,000  Level Boston Center
07:44PM 42.3414 -75.9161 122° Southeast 293 337 13,000  Level Boston Center
07:45PM 42.2994 -75.8233 121° Southeast 292 336 13,000  Level Boston Center
07:46PM 42.2592 -75.7361 122° Southeast 289 333 13,000  Level Boston Center
07:47PM 42.2078 -75.6247 122° Southeast 291 335 13,000  Level Boston Center
07:48PM 42.1661 -75.5336 122° Southeast 285 328 13,000  Level Boston Center
07:49PM 42.1264 -75.4492 122° Southeast 273 314 13,000  Level Boston Center
07:50PM 42.0867 -75.3611 121° Southeast 273 314 13,000  Level Boston Center
07:51PM 42.0475 -75.2736 121° Southeast 274 315 13,000  Level Boston Center
07:52PM 42.0125 -75.1767 116° Southeast 281 323 13,100  Climbing Boston Center
07:53PM 41.9744 -75.0806 118° Southeast 277 319 13,000 -60 Descending Boston Center
07:54PM 41.9367 -74.9806 117° Southeast 278 320 13,000 -240 Level Boston Center
07:55PM 41.8944 -74.8989 125° Southeast 268 308 12,600 -840 Descending Boston Center
07:56PM 41.8397 -74.8328 138° Southeast 265 305 11,400 -1,200 Descending Boston Center
07:57PM 41.7861 -74.7617 135° Southeast 272 313 10,200 -1,260 Descending Boston Center
07:58PM 41.7250 -74.6831 136° Southeast 283 326 8,900 -1,260 Descending Boston Center
07:59PM 41.6669 -74.6047 135° Southeast 297 342 7,700 -960 Descending Boston Center
08:00PM 41.5997 -74.5589 153° Southeast 278 320 7,000 -720 Descending Boston Center
08:01PM 41.5333 -74.5692 187° South 244 281 6,300 -540 Descending Boston Center
08:02PM 41.4606 -74.5819 187° South 246 283 6,000 -180 Descending Boston Center
08:03PM 41.3944 -74.5956 189° South 242 278 6,000  Level Boston Center
08:04PM 41.3500 -74.6167 200° South 232 267 6,000  Level New York TRACON
08:05PM 41.2667 -74.5833 163° South 255 293 6,000  Level New York TRACON
08:06PM 41.2000 -74.5667 169° South 254 292 6,000 -240 Level New York TRACON
08:07PM 41.1500 -74.5333 153° Southeast 272 313 5,600 -540 Descending New York TRACON
08:08PM 41.1000 -74.4500 129° Southeast 279 321 5,000 -360 Descending New York TRACON
08:09PM 41.0667 -74.3667 118° Southeast 266 306 5,000  Level New York TRACON
08:10PM 41.0333 -74.2667 114° Southeast 276 318 5,000 -240 Level New York TRACON
08:11PM 41.0000 -74.1833 118° Southeast 270 311 4,500 -540 Descending New York TRACON
08:12PM 40.9667 -74.1000 118° Southeast 278 320 4,000 -600 Descending New York TRACON
08:13PM 40.9167 -74.0333 135° Southeast 244 281 3,300 -540 Descending New York TRACON
08:14PM 40.8500 -74.0667 201° Southwest 213 245 3,000 -480 Descending New York TRACON
08:15PM 40.8167 -74.0833 201° Southwest 179 206 2,400 -780 Descending New York TRACON
08:16PM 40.7667 -74.0833 180° South 176 203 1,500 -600 Descending New York TRACON
08:17PM 40.7167 -74.0833 180° South 129 148 1,300 -480 Descending New York TRACON
08:18PM 40.7000 -74.1167 237° Southwest 125 144 600 -720 Descending New York TRACON